Terminal Aerodrome Forecast
Issued by NWS Salt Lake City, UT

Home | Current Version | Previous Version | Text Only | Print | Product List | Glossary On
Versions: 1 2 3 4 5 6 7 8 9 10 11 12 13 14 15 16 17 18 19 20 21 22 23 24 25 26 27
000
FTUS45 KSLC 172320
TAFSLC
TAF
KSLC 172320Z 1800/1906 34004KT 6SM HZ FEW020
     FM180400 15004KT 5SM BR BCFG FEW020
     FM181900 31004KT 6SM HZ FEW020
     FM190300 17007KT 6SM BR SCT060 BKN150=

USA.gov is the U.S. government's official web portal to all federal, state and local government web resources and services.